Time;durP1;ratioP1;P1;durP2;ratioP2;P2;SDS_P1;SDS_P2;PMS_P1;PMS_P2;Temp;Humidity;BMP_temperature;BMP_pressure;BME280_temperature;BME280_humidity;BME280_pressure;Samples;Min_cycle;Max_cycle;Signal;HPM_P1;HPM_P2
2021/11/08 00:02:17;;;;;;;1999.90;999.90;;;6.30;99.90;;;;;;4993319;28;20648;-82
2021/11/08 00:04:42;;;;;;;1999.90;999.90;;;6.30;99.90;;;;;;4992926;28;20211;-80
2021/11/08 00:07:08;;;;;;;1999.90;999.90;;;6.10;99.90;;;;;;4993052;28;20637;-80
2021/11/08 00:09:34;;;;;;;1999.90;999.90;;;6.20;99.90;;;;;;4992904;28;20536;-80
2021/11/08 00:12:00;;;;;;;1999.90;999.90;;;6.10;99.90;;;;;;4993007;28;20169;-79
2021/11/08 00:14:26;;;;;;;1999.90;999.90;;;6.00;99.90;;;;;;4992972;28;20176;-81
2021/11/08 00:17:04;;;;;;;1999.90;999.90;;;6.10;99.90;;;;;;4993381;28;20288;-81
2021/11/08 00:22:22;;;;;;;1999.90;999.90;;;6.10;99.90;;;;;;4992907;28;20184;-80
2021/11/08 00:24:50;;;;;;;1999.90;999.90;;;6.20;99.90;;;;;;4993186;28;20676;-80
2021/11/08 00:27:15;;;;;;;1999.90;999.90;;;6.30;99.90;;;;;;4992754;28;20197;-82
2021/11/08 00:29:41;;;;;;;1999.90;999.90;;;6.30;99.90;;;;;;4992718;28;20662;-80
2021/11/08 00:32:07;;;;;;;1999.90;999.90;;;6.30;99.90;;;;;;4993055;28;20605;-80
2021/11/08 00:34:33;;;;;;;1999.90;999.90;;;6.40;99.90;;;;;;4992650;28;20208;-80
2021/11/08 00:36:59;;;;;;;1999.90;999.90;;;6.40;99.90;;;;;;4992528;28;20223;-81
2021/11/08 00:39:25;;;;;;;1999.90;999.90;;;6.50;99.90;;;;;;4992371;28;20211;-80
2021/11/08 00:41:51;;;;;;;1999.90;999.90;;;6.40;99.90;;;;;;4993233;28;20671;-81
2021/11/08 00:44:17;;;;;;;1999.90;999.90;;;6.50;99.90;;;;;;4992661;28;20250;-80
2021/11/08 00:46:43;;;;;;;1999.90;999.90;;;6.50;99.90;;;;;;4992496;28;20677;-80
2021/11/08 00:49:10;;;;;;;1999.90;999.90;;;6.40;99.90;;;;;;4992743;28;20235;-80
2021/11/08 00:51:39;;;;;;;1999.90;999.90;;;6.50;99.90;;;;;;4993130;28;20247;-80
2021/11/08 00:54:10;;;;;;;1999.90;999.90;;;6.50;99.90;;;;;;4992579;28;20297;-81
2021/11/08 00:56:35;;;;;;;1999.90;999.90;;;6.50;99.90;;;;;;4992844;28;20164;-80
2021/11/08 00:59:01;;;;;;;1999.90;999.90;;;6.50;99.90;;;;;;4992386;28;20207;-80
2021/11/08 01:01:26;;;;;;;1999.90;999.90;;;6.50;99.90;;;;;;4992469;28;20215;-81
2021/11/08 01:03:52;;;;;;;1999.90;999.90;;;6.50;99.90;;;;;;4992956;28;20264;-81
2021/11/08 01:06:19;;;;;;;1999.90;999.90;;;6.40;99.90;;;;;;4992415;28;20209;-81
2021/11/08 01:08:45;;;;;;;1999.90;999.90;;;6.50;99.90;;;;;;4992185;28;20191;-80
2021/11/08 01:11:10;;;;;;;1999.90;999.90;;;6.50;99.90;;;;;;4992382;28;20192;-80
2021/11/08 01:13:36;;;;;;;1999.90;999.90;;;6.40;99.90;;;;;;4992575;28;20714;-80
2021/11/08 01:16:03;;;;;;;1999.90;999.90;;;6.50;99.90;;;;;;4992260;28;20181;-81
2021/11/08 01:18:28;;;;;;;1999.90;999.90;;;6.40;99.90;;;;;;4995426;28;20235;-81
2021/11/08 01:20:54;;;;;;;1999.90;999.90;;;6.40;99.90;;;;;;4996041;28;20200;-81
2021/11/08 01:23:26;;;;;;;1999.90;999.90;;;6.40;99.90;;;;;;4995866;28;20216;-81
2021/11/08 01:26:02;;;;;;;1999.90;999.90;;;6.50;99.90;;;;;;4995903;28;20250;-80
2021/11/08 01:28:39;;;;;;;1999.90;999.90;;;6.50;99.90;;;;;;4996889;28;20180;-81
2021/11/08 01:31:06;;;;;;;1999.90;999.90;;;6.50;99.90;;;;;;4995825;28;20184;-81
2021/11/08 01:33:32;;;;;;;1999.90;999.90;;;6.60;99.90;;;;;;4995764;28;20172;-80
2021/11/08 01:38:25;;;;;;;1999.90;999.90;;;6.60;99.90;;;;;;4995461;28;20210;-81
2021/11/08 01:40:51;;;;;;;1999.90;999.90;;;6.70;99.90;;;;;;4995825;28;20200;-80
2021/11/08 01:43:17;;;;;;;1999.90;999.90;;;6.70;99.90;;;;;;4995335;28;20203;-81
2021/11/08 01:45:42;;;;;;;1999.90;999.90;;;6.70;99.90;;;;;;4996449;28;20207;-81
2021/11/08 01:48:09;;;;;;;1999.90;999.90;;;6.70;99.90;;;;;;4995925;28;20176;-81
2021/11/08 01:50:35;;;;;;;1999.90;999.90;;;6.70;99.90;;;;;;4995778;28;20232;-80
2021/11/08 01:53:01;;;;;;;1999.90;999.90;;;6.80;99.90;;;;;;4996220;28;20180;-81
2021/11/08 01:55:26;;;;;;;1999.90;999.90;;;6.80;99.90;;;;;;4996354;28;20169;-81
2021/11/08 01:57:52;;;;;;;1999.90;999.90;;;6.80;99.90;;;;;;4996122;28;20548;-81
2021/11/08 02:00:18;;;;;;;1999.90;999.90;;;6.80;99.90;;;;;;4995943;28;20225;-79
2021/11/08 02:02:43;;;;;;;1999.90;999.90;;;6.80;99.90;;;;;;4995949;28;20165;-80
2021/11/08 02:05:09;;;;;;;1999.90;999.90;;;6.70;99.90;;;;;;4995759;28;20199;-81
2021/11/08 02:07:35;;;;;;;1999.90;999.90;;;6.80;99.90;;;;;;4995758;28;20632;-81
2021/11/08 02:10:00;;;;;;;1999.90;999.90;;;6.70;99.90;;;;;;4995632;28;20230;-81
2021/11/08 02:12:27;;;;;;;1999.90;999.90;;;6.70;99.90;;;;;;4995637;28;20206;-80
2021/11/08 02:14:53;;;;;;;1999.90;999.90;;;6.70;99.90;;;;;;4995845;28;20195;-80
2021/11/08 02:17:18;;;;;;;1999.90;999.90;;;6.70;99.90;;;;;;4995609;28;20184;-80
2021/11/08 02:19:44;;;;;;;1999.90;999.90;;;6.80;99.90;;;;;;4995800;28;20212;-79
2021/11/08 02:22:10;;;;;;;1999.90;999.90;;;6.60;99.90;;;;;;4995804;28;20174;-79
2021/11/08 02:24:37;;;;;;;1999.90;999.90;;;6.50;99.90;;;;;;4995740;28;20173;-81
2021/11/08 02:27:03;;;;;;;1999.90;999.90;;;6.50;99.90;;;;;;4996005;28;20204;-80
2021/11/08 02:29:28;;;;;;;1999.90;999.90;;;6.40;99.90;;;;;;4995153;28;20207;-80
2021/11/08 02:31:56;;;;;;;1999.90;999.90;;;6.40;99.90;;;;;;4994796;28;20698;-80
2021/11/08 02:34:22;;;;;;;1999.90;999.90;;;6.30;99.90;;;;;;4995455;28;20200;-81
2021/11/08 02:36:48;;;;;;;1999.90;999.90;;;6.30;99.90;;;;;;4995559;28;20254;-80
2021/11/08 02:39:19;;;;;;;1999.90;999.90;;;6.20;99.90;;;;;;4995158;28;20188;-81
2021/11/08 02:41:45;;;;;;;1999.90;999.90;;;6.20;99.90;;;;;;4999058;28;20664;-80
2021/11/08 02:44:11;;;;;;;1999.90;999.90;;;6.10;99.90;;;;;;4995638;28;20177;-80
2021/11/08 02:46:41;;;;;;;1999.90;999.90;;;6.20;99.90;;;;;;4995330;28;20695;-81
2021/11/08 02:49:09;;;;;;;1999.90;999.90;;;6.20;99.90;;;;;;4995473;28;20183;-81
2021/11/08 02:51:36;;;;;;;1999.90;999.90;;;6.10;99.90;;;;;;4995662;28;20205;-81
2021/11/08 02:54:09;;;;;;;1999.90;999.90;;;6.10;99.90;;;;;;4995367;28;20650;-81
2021/11/08 02:56:35;;;;;;;1999.90;999.90;;;6.10;99.90;;;;;;4996504;28;20653;-80
2021/11/08 02:59:00;;;;;;;1999.90;999.90;;;6.10;99.90;;;;;;4995114;28;20182;-81
2021/11/08 03:01:26;;;;;;;1999.90;999.90;;;6.10;99.90;;;;;;4995222;28;20371;-81
2021/11/08 03:03:55;;;;;;;1999.90;999.90;;;6.20;99.90;;;;;;4995555;28;20231;-81
2021/11/08 03:08:51;;;;;;;1999.90;999.90;;;6.20;99.90;;;;;;4995136;28;20204;-80
2021/11/08 03:11:16;;;;;;;1999.90;999.90;;;6.40;99.90;;;;;;4995396;28;20691;-80
2021/11/08 03:13:51;;;;;;;1999.90;999.90;;;6.30;99.90;;;;;;4995324;28;20172;-81
2021/11/08 03:19:05;;;;;;;1999.90;999.90;;;6.20;99.90;;;;;;4995742;28;20660;-81
2021/11/08 03:21:31;;;;;;;1999.90;999.90;;;6.30;99.90;;;;;;4996268;28;20197;-80
2021/11/08 03:24:00;;;;;;;1999.90;999.90;;;6.30;99.90;;;;;;4995630;28;20177;-81
2021/11/08 03:26:38;;;;;;;1999.90;999.90;;;6.30;99.90;;;;;;4995836;28;20299;-80
2021/11/08 03:29:04;;;;;;;1999.90;999.90;;;6.30;99.90;;;;;;4996711;28;20172;-80
2021/11/08 03:31:30;;;;;;;1999.90;999.90;;;6.30;99.90;;;;;;4995091;28;20667;-79
2021/11/08 03:33:57;;;;;;;1999.90;999.90;;;6.30;99.90;;;;;;4995365;28;20179;-80
2021/11/08 03:36:23;;;;;;;1999.90;999.90;;;6.40;99.90;;;;;;4995067;28;20568;-81
2021/11/08 03:38:48;;;;;;;1999.90;999.90;;;6.30;99.90;;;;;;4995439;28;20184;-82
2021/11/08 03:41:14;;;;;;;1999.90;999.90;;;6.30;99.90;;;;;;4994667;28;20208;-79
2021/11/08 03:43:40;;;;;;;1999.90;999.90;;;6.30;99.90;;;;;;4996068;28;20192;-81
2021/11/08 03:46:05;;;;;;;1999.90;999.90;;;6.50;99.90;;;;;;4995929;28;20291;-81
2021/11/08 03:48:31;;;;;;;1999.90;999.90;;;6.50;99.90;;;;;;4995285;28;20168;-81
2021/11/08 03:50:56;;;;;;;1999.90;999.90;;;6.50;99.90;;;;;;4994178;28;20272;-80
2021/11/08 03:53:22;;;;;;;1999.90;999.90;;;6.50;99.90;;;;;;4994100;28;20636;-79
2021/11/08 03:55:47;;;;;;;1999.90;999.90;;;6.60;99.90;;;;;;4994104;28;20652;-80
2021/11/08 03:58:13;;;;;;;1999.90;999.90;;;6.40;99.90;;;;;;4993658;28;20176;-80
2021/11/08 04:00:41;;;;;;;1999.90;999.90;;;6.40;99.90;;;;;;4993495;28;20255;-80
2021/11/08 04:03:07;;;;;;;1999.90;999.90;;;6.40;99.90;;;;;;4993941;28;20187;-81
2021/11/08 04:05:34;;;;;;;1999.90;999.90;;;6.30;99.90;;;;;;4993461;28;20177;-80
2021/11/08 04:08:03;;;;;;;1999.90;999.90;;;6.30;99.90;;;;;;4993584;28;20169;-80
2021/11/08 04:10:29;;;;;;;1999.90;999.90;;;6.20;99.90;;;;;;4993943;28;20200;-80
2021/11/08 04:13:00;;;;;;;1999.90;999.90;;;6.10;99.90;;;;;;4993968;28;20169;-81
2021/11/08 04:15:31;;;;;;;1999.90;999.90;;;6.10;99.90;;;;;;4994395;28;20290;-81
2021/11/08 04:17:57;;;;;;;1999.90;999.90;;;6.00;99.90;;;;;;4993302;28;20168;-81
2021/11/08 04:20:23;;;;;;;1999.90;999.90;;;6.00;99.90;;;;;;4993117;28;20195;-81
2021/11/08 04:22:49;;;;;;;1999.90;999.90;;;5.90;99.90;;;;;;4993313;28;20202;-82
2021/11/08 04:25:15;;;;;;;1999.90;999.90;;;5.90;99.90;;;;;;4993277;28;20186;-80
2021/11/08 04:27:42;;;;;;;1999.90;999.90;;;5.90;99.90;;;;;;4993034;28;20217;-81
2021/11/08 04:30:08;;;;;;;1999.90;999.90;;;5.80;99.90;;;;;;4993105;28;20192;-80
2021/11/08 04:32:44;;;;;;;1999.90;999.90;;;5.90;99.90;;;;;;4993327;28;20665;-81
2021/11/08 04:35:15;;;;;;;1999.90;999.90;;;5.90;99.90;;;;;;4994498;28;20241;-81
2021/11/08 04:40:50;;;;;;;1999.90;999.90;;;6.00;99.90;;;;;;4993243;28;20284;-81
2021/11/08 04:48:53;;;;;;;1999.90;999.90;;;6.00;99.90;;;;;;4993111;28;20218;-80
2021/11/08 04:51:43;;;;;;;1999.90;999.90;;;5.90;99.90;;;;;;4993570;28;20201;-81
2021/11/08 05:21:32;;;;;;;1999.90;999.90;;;5.80;99.90;;;;;;4983136;28;20238;-81
2021/11/08 05:31:43;;;;;;;1999.90;999.90;;;5.90;99.90;;;;;;4979735;28;20216;-82
2021/11/08 05:34:09;;;;;;;1999.90;999.90;;;5.80;99.90;;;;;;4980894;28;20707;-79
2021/11/08 05:36:34;;;;;;;1999.90;999.90;;;5.80;99.90;;;;;;4965457;28;20180;-80
2021/11/08 05:39:03;;;;;;;1999.90;999.90;;;5.80;99.90;;;;;;4964183;28;20212;-80
2021/11/08 05:41:28;;;;;;;1999.90;999.90;;;5.80;99.90;;;;;;4980448;28;20494;-83
2021/11/08 05:43:54;;;;;;;1999.90;999.90;;;5.80;99.90;;;;;;4981525;28;20641;-79
2021/11/08 05:46:20;;;;;;;1999.90;999.90;;;5.80;99.90;;;;;;4974474;28;20208;-80
2021/11/08 05:48:47;;;;;;;1999.90;999.90;;;5.80;99.90;;;;;;5012552;28;20192;-80
2021/11/08 05:51:13;;;;;;;1999.90;999.90;;;5.90;99.90;;;;;;5013267;28;20199;-79
2021/11/08 05:53:39;;;;;;;1999.90;999.90;;;6.00;99.90;;;;;;4997754;28;20203;-79
2021/11/08 06:48:50;;;;;;;1999.90;999.90;;;5.80;99.90;;;;;;4994461;28;20238;-83
2021/11/08 06:50:59;;;;;;;1999.90;999.90;;;5.80;99.90;;;;;;4980630;28;20200;-83
2021/11/08 06:53:25;;;;;;;1999.90;999.90;;;5.80;99.90;;;;;;4977091;28;20180;-81
2021/11/08 06:55:53;;;;;;;1999.90;999.90;;;5.80;99.90;;;;;;4996070;28;20188;-80
2021/11/08 06:58:21;;;;;;;1999.90;999.90;;;5.70;99.90;;;;;;5009930;28;20206;-81
2021/11/08 07:00:47;;;;;;;1999.90;999.90;;;5.80;99.90;;;;;;4993542;28;20262;-81
2021/11/08 07:03:13;;;;;;;1999.90;999.90;;;5.80;99.90;;;;;;4993854;28;20184;-81
2021/11/08 07:05:39;;;;;;;1999.90;999.90;;;5.80;99.90;;;;;;5009984;28;20711;-82
2021/11/08 07:08:05;;;;;;;1999.90;999.90;;;5.70;99.90;;;;;;4993295;28;20172;-82
2021/11/08 07:10:30;;;;;;;1999.90;999.90;;;5.80;99.90;;;;;;4993128;28;20215;-83
2021/11/08 07:12:56;;;;;;;1999.90;999.90;;;5.80;99.90;;;;;;4993233;28;20176;-83
2021/11/08 07:15:23;;;;;;;1999.90;999.90;;;5.80;99.90;;;;;;4992434;28;20187;-83
2021/11/08 07:17:49;;;;;;;1999.90;999.90;;;5.80;99.90;;;;;;4978753;28;20194;-83
2021/11/08 07:20:14;;;;;;;1999.90;999.90;;;5.80;99.90;;;;;;4960948;28;20695;-81
2021/11/08 07:22:41;;;;;;;1999.90;999.90;;;;;;;;;;4976886;28;20184;-84
2021/11/08 07:25:07;;;;;;;1999.90;999.90;;;5.90;99.90;;;;;;4977163;28;20176;-82
2021/11/08 07:27:33;;;;;;;1999.90;999.90;;;5.80;99.90;;;;;;4976922;28;20223;-80
2021/11/08 07:29:59;;;;;;;1999.90;999.90;;;5.70;99.90;;;;;;4981145;28;20553;-80
2021/11/08 07:32:25;;;;;;;1999.90;999.90;;;5.80;99.90;;;;;;5011111;28;20246;-80
2021/11/08 07:34:53;;;;;;;1999.90;999.90;;;5.80;99.90;;;;;;5010046;28;20257;-84
2021/11/08 07:37:18;;;;;;;1999.90;999.90;;;5.90;99.90;;;;;;4988900;28;20193;-84
2021/11/08 07:39:44;;;;;;;1999.90;999.90;;;5.90;99.90;;;;;;4993791;28;20661;-87
2021/11/08 07:42:10;;;;;;;1999.90;999.90;;;6.00;99.90;;;;;;4994249;28;20180;-82
2021/11/08 07:44:35;;;;;;;1999.90;999.90;;;6.00;99.90;;;;;;4995033;28;20882;-84
2021/11/08 07:47:01;;;;;;;1999.90;999.90;;;6.00;99.90;;;;;;4994708;28;20233;-83
2021/11/08 07:49:26;;;;;;;1999.90;999.90;;;6.10;99.90;;;;;;4994015;28;20226;-80
2021/11/08 07:51:52;;;;;;;1999.90;999.90;;;6.20;99.90;;;;;;4994083;28;20679;-83
2021/11/08 07:54:17;;;;;;;1999.90;999.90;;;6.10;99.90;;;;;;4961193;28;20173;-81
2021/11/08 07:56:47;;;;;;;1999.90;999.90;;;6.30;99.90;;;;;;4959435;28;20188;-80
2021/11/08 07:59:14;;;;;;;1999.90;999.90;;;6.30;99.90;;;;;;4961693;28;20183;-80
2021/11/08 08:01:40;;;;;;;1999.90;999.90;;;6.40;99.90;;;;;;4976199;28;20204;-80
2021/11/08 08:04:05;;;;;;;1999.90;999.90;;;6.60;99.90;;;;;;4960505;28;20227;-82
2021/11/08 08:06:31;;;;;;;1999.90;999.90;;;6.70;99.90;;;;;;4961940;28;20216;-83
2021/11/08 08:08:57;;;;;;;1999.90;999.90;;;;;;;;;;4960870;28;20184;-85
2021/11/08 08:11:24;;;;;;;1999.90;999.90;;;;;;;;;;4992750;28;20613;-86
2021/11/08 08:13:49;;;;;;;1999.90;999.90;;;6.80;99.90;;;;;;4977185;28;20700;-81
2021/11/08 08:16:17;;;;;;;1999.90;999.90;;;6.90;99.90;;;;;;4968717;28;20235;-84
2021/11/08 08:18:44;;;;;;;1999.90;999.90;;;7.00;99.90;;;;;;5005473;28;20552;-84
2021/11/08 08:21:10;;;;;;;1999.90;999.90;;;7.00;99.90;;;;;;4993498;28;20235;-84
2021/11/08 08:23:35;;;;;;;1999.90;999.90;;;7.10;99.90;;;;;;4961813;28;20217;-84
2021/11/08 08:26:01;;;;;;;1999.90;999.90;;;7.20;99.90;;;;;;4961106;28;20260;-82
2021/11/08 08:28:26;;;;;;;1999.90;999.90;;;7.30;99.90;;;;;;4961081;28;20176;-83
2021/11/08 08:30:52;;;;;;;1999.90;999.90;;;7.30;99.90;;;;;;4961871;28;20736;-84
2021/11/08 08:33:18;;;;;;;1999.90;999.90;;;7.30;99.90;;;;;;4962201;28;20181;-83
2021/11/08 08:35:44;;;;;;;1999.90;999.90;;;7.40;99.90;;;;;;4978019;28;20182;-83
2021/11/08 08:38:11;;;;;;;1999.90;999.90;;;7.40;99.90;;;;;;4960055;28;20188;-84
2021/11/08 08:40:38;;;;;;;1999.90;999.90;;;7.50;99.90;;;;;;4959782;28;20204;-84
2021/11/08 08:43:04;;;;;;;1999.90;999.90;;;7.60;99.90;;;;;;4960191;28;20183;-84
2021/11/08 08:45:30;;;;;;;1999.90;999.90;;;7.60;99.90;;;;;;4962473;28;20185;-83
2021/11/08 08:47:56;;;;;;;1999.90;999.90;;;7.60;99.90;;;;;;4976347;28;20214;-83
2021/11/08 08:50:21;;;;;;;1999.90;999.90;;;7.60;99.90;;;;;;4976176;28;20192;-83
2021/11/08 08:52:47;;;;;;;1999.90;999.90;;;7.60;99.90;;;;;;4976757;28;20187;-83
2021/11/08 08:55:13;;;;;;;1999.90;999.90;;;7.60;99.90;;;;;;4974739;28;20189;-81
2021/11/08 08:57:38;;;;;;;1999.90;999.90;;;7.80;99.90;;;;;;5008885;28;20586;-82
2021/11/08 09:00:06;;;;;;;1999.90;999.90;;;7.70;99.90;;;;;;5008290;28;20220;-81
2021/11/08 09:02:31;;;;;;;1999.90;999.90;;;7.90;99.90;;;;;;4992006;28;20814;-81
2021/11/08 09:04:57;;;;;;;1999.90;999.90;;;7.90;99.90;;;;;;5008545;28;20184;-82
2021/11/08 09:07:23;;;;;;;1999.90;999.90;;;;;;;;;;4991435;28;20213;-82
2021/11/08 09:09:48;;;;;;;1999.90;999.90;;;7.80;99.90;;;;;;4991297;28;20657;-82
2021/11/08 09:12:14;;;;;;;1999.90;999.90;;;8.00;99.90;;;;;;4991951;28;20185;-83
2021/11/08 09:14:39;;;;;;;1999.90;999.90;;;8.00;99.90;;;;;;4991663;28;20659;-81
2021/11/08 09:17:06;;;;;;;1999.90;999.90;;;8.10;99.90;;;;;;5005100;28;20673;-82
2021/11/08 09:19:31;;;;;;;1999.90;999.90;;;8.10;99.90;;;;;;5007978;28;20184;-82
2021/11/08 09:21:57;;;;;;;1999.90;999.90;;;8.20;99.90;;;;;;5008334;28;20178;-82
2021/11/08 09:24:23;;;;;;;1999.90;999.90;;;8.20;99.90;;;;;;4991613;28;20665;-82
2021/11/08 09:26:49;;;;;;;1999.90;999.90;;;8.40;99.90;;;;;;4991621;28;20573;-82
2021/11/08 09:29:18;;;;;;;1999.90;999.90;;;8.60;99.90;;;;;;4991323;28;20199;-82
2021/11/08 09:31:44;;;;;;;1999.90;999.90;;;8.80;99.90;;;;;;5007821;28;20200;-81
2021/11/08 09:34:10;;;;;;;1999.90;999.90;;;9.00;99.90;;;;;;4992139;28;20546;-82
2021/11/08 09:36:37;;;;;;;1999.90;999.90;;;9.20;99.90;;;;;;5005288;28;20199;-82
2021/11/08 09:39:33;;;;;;;1999.90;999.90;;;9.20;99.90;;;;;;4993712;28;20705;-78
2021/11/08 09:42:00;;;;;;;1999.90;999.90;;;9.20;99.90;;;;;;5008654;28;20215;-78
2021/11/08 09:44:25;;;;;;;1999.90;999.90;;;9.10;99.90;;;;;;5009205;28;20651;-79
2021/11/08 09:46:52;;;;;;;1999.90;999.90;;;9.20;99.90;;;;;;4995982;28;20201;-78
2021/11/08 09:49:17;;;;;;;1999.90;999.90;;;9.10;99.90;;;;;;4995337;28;20191;-79
2021/11/08 09:51:44;;;;;;;1999.90;999.90;;;9.00;99.90;;;;;;5011859;28;20192;-79
2021/11/08 09:54:11;;;;;;;1999.90;999.90;;;8.90;99.90;;;;;;5011523;28;20581;-78
2021/11/08 09:56:40;;;;;;;1999.90;999.90;;;9.00;99.90;;;;;;5011775;28;20182;-80
2021/11/08 09:59:06;;;;;;;1999.90;999.90;;;9.10;99.90;;;;;;4995393;28;20177;-78
2021/11/08 10:01:34;;;;;;;1999.90;999.90;;;9.10;99.90;;;;;;4995348;28;20215;-77
2021/11/08 10:04:00;;;;;;;1999.90;999.90;;;;;;;;;;5011967;28;20266;-79
2021/11/08 10:06:28;;;;;;;1999.90;999.90;;;;;;;;;;4994880;28;20699;-79
2021/11/08 10:08:54;;;;;;;1999.90;999.90;;;9.00;99.90;;;;;;4995660;28;20214;-80
2021/11/08 10:11:19;;;;;;;1999.90;999.90;;;9.00;99.90;;;;;;4962777;28;20239;-80
2021/11/08 10:13:46;;;;;;;1999.90;999.90;;;;;;;;;;4978771;28;20174;-80
2021/11/08 10:16:13;;;;;;;1999.90;999.90;;;;;;;;;;4978411;28;20185;-80
2021/11/08 10:18:41;;;;;;;1999.90;999.90;;;;;;;;;;4994212;28;20733;-79
2021/11/08 10:21:11;;;;;;;1999.90;999.90;;;;;;;;;;4978740;28;20262;-79
2021/11/08 10:23:39;;;;;;;1999.90;999.90;;;;;;;;;;4995823;28;20183;-78
2021/11/08 10:26:06;;;;;;;1999.90;999.90;;;9.60;99.90;;;;;;4980301;28;20297;-79
2021/11/08 10:28:32;;;;;;;1999.90;999.90;;;9.80;99.90;;;;;;4962163;28;20191;-79
2021/11/08 10:31:04;;;;;;;1999.90;999.90;;;9.80;99.90;;;;;;4963214;28;20222;-78
2021/11/08 10:33:32;;;;;;;1999.90;999.90;;;9.80;99.90;;;;;;4995929;28;20641;-79
2021/11/08 10:36:03;;;;;;;1999.90;999.90;;;9.80;99.90;;;;;;4962939;28;20215;-78
2021/11/08 10:38:30;;;;;;;1999.90;999.90;;;9.70;99.90;;;;;;4964174;28;20168;-79
2021/11/08 10:40:58;;;;;;;1999.90;999.90;;;9.80;99.90;;;;;;4979639;28;20222;-79
2021/11/08 10:43:42;;;;;;;1999.90;999.90;;;9.80;99.90;;;;;;4964102;28;20188;-79
2021/11/08 10:46:13;;;;;;;1999.90;999.90;;;10.00;99.90;;;;;;4966585;28;20640;-78
2021/11/08 10:48:45;;;;;;;1999.90;999.90;;;10.10;99.90;;;;;;4966165;28;20180;-79
2021/11/08 10:51:12;;;;;;;1999.90;999.90;;;10.30;99.90;;;;;;4996722;28;20206;-79
2021/11/08 10:53:52;;;;;;;1999.90;999.90;;;10.20;99.90;;;;;;4963814;28;20184;-77
2021/11/08 10:56:45;;;;;;;1999.90;999.90;;;10.30;99.90;;;;;;4995802;28;20197;-77
2021/11/08 10:59:16;;;;;;;1999.90;999.90;;;10.30;99.90;;;;;;4993452;28;20279;-78
2021/11/08 11:01:45;;;;;;;1999.90;999.90;;;10.40;99.90;;;;;;4979123;28;20211;-77
2021/11/08 11:04:11;;;;;;;1999.90;999.90;;;10.60;99.90;;;;;;4994826;28;20216;-77
2021/11/08 11:06:40;;;;;;;1999.90;999.90;;;10.70;99.90;;;;;;4978499;28;20289;-78
2021/11/08 11:09:17;;;;;;;1999.90;999.90;;;10.80;99.90;;;;;;4994499;28;20187;-78
2021/11/08 11:11:44;;;;;;;1999.90;999.90;;;;;;;;;;4995478;28;20188;-79
2021/11/08 11:14:10;;;;;;;1999.90;999.90;;;10.50;99.90;;;;;;4998088;28;20184;-78
2021/11/08 11:16:55;;;;;;;1999.90;999.90;;;10.80;99.90;;;;;;4998160;28;20299;-79
2021/11/08 11:19:23;;;;;;;1999.90;999.90;;;10.50;99.90;;;;;;4997487;28;20206;-78
2021/11/08 11:22:01;;;;;;;1999.90;999.90;;;10.50;99.90;;;;;;4998644;28;20206;-78
2021/11/08 11:24:50;;;;;;;1999.90;999.90;;;10.40;99.90;;;;;;4999402;28;20550;-78
2021/11/08 11:27:46;;;;;;;1999.90;999.90;;;10.40;99.90;;;;;;4999534;28;20697;-78
2021/11/08 11:30:28;;;;;;;1999.90;999.90;;;10.40;99.90;;;;;;4984475;28;20222;-78
2021/11/08 11:33:00;;;;;;;1999.90;999.90;;;10.40;99.90;;;;;;5000738;28;20535;-78
2021/11/08 11:35:28;;;;;;;1999.90;999.90;;;10.30;99.90;;;;;;5000665;28;20172;-78
2021/11/08 11:37:56;;;;;;;1999.90;999.90;;;10.50;99.90;;;;;;4999764;28;20207;-78
2021/11/08 11:40:22;;;;;;;1999.90;999.90;;;10.50;99.90;;;;;;4999082;28;20207;-78
2021/11/08 11:42:49;;;;;;;1999.90;999.90;;;10.50;99.90;;;;;;4999843;28;20674;-78
2021/11/08 11:45:15;;;;;;;1999.90;999.90;;;10.80;99.90;;;;;;4999538;28;20219;-78
2021/11/08 11:47:41;;;;;;;1999.90;999.90;;;10.90;99.90;;;;;;4998744;28;20269;-78
2021/11/08 11:50:08;;;;;;;1999.90;999.90;;;10.90;99.90;;;;;;4999199;28;20275;-78
2021/11/08 11:52:41;;;;;;;1999.90;999.90;;;;;;;;;;4998576;28;20188;-78
2021/11/08 11:55:07;;;;;;;1999.90;999.90;;;11.00;99.90;;;;;;4999061;28;20183;-78
2021/11/08 11:57:33;;;;;;;1999.90;999.90;;;11.00;99.90;;;;;;4998520;28;20556;-78
2021/11/08 11:59:58;;;;;;;1999.90;999.90;;;11.00;99.90;;;;;;4998399;28;20239;-78
2021/11/08 12:02:26;;;;;;;1999.90;999.90;;;;;;;;;;4998085;28;20176;-78
2021/11/08 12:04:52;;;;;;;1999.90;999.90;;;;;;;;;;4997722;28;20184;-78
2021/11/08 12:07:18;;;;;;;1999.90;999.90;;;;;;;;;;4997131;28;20211;-78
2021/11/08 12:09:44;;;;;;;1999.90;999.90;;;;;;;;;;4997502;28;20605;-78
2021/11/08 12:12:21;;;;;;;1999.90;999.90;;;;;;;;;;4997744;28;20181;-78
2021/11/08 12:14:55;;;;;;;1999.90;999.90;;;;;;;;;;4996867;28;20187;-78
2021/11/08 12:17:21;;;;;;;1999.90;999.90;;;;;;;;;;4997247;28;20188;-78
2021/11/08 12:19:47;;;;;;;1999.90;999.90;;;;;;;;;;4996046;28;20207;-78
2021/11/08 12:22:25;;;;;;;1999.90;999.90;;;11.00;99.90;;;;;;4995613;28;20183;-80
2021/11/08 12:24:56;;;;;;;1999.90;999.90;;;;;;;;;;4995792;28;20164;-79
2021/11/08 12:27:32;;;;;;;1999.90;999.90;;;11.10;99.90;;;;;;4994297;28;20227;-79
2021/11/08 12:29:58;;;;;;;1999.90;999.90;;;11.20;99.90;;;;;;4996339;28;20211;-79
2021/11/08 12:32:24;;;;;;;1999.90;999.90;;;11.30;99.90;;;;;;4993614;28;20208;-78
2021/11/08 12:34:55;;;;;;;1999.90;999.90;;;11.30;99.90;;;;;;4993572;28;20230;-77
2021/11/08 12:37:32;;;;;;;1999.90;999.90;;;11.30;99.90;;;;;;4994354;28;20421;-78
2021/11/08 12:39:58;;;;;;;1999.90;999.90;;;11.20;99.90;;;;;;5004142;28;20245;-78
2021/11/08 12:42:24;;;;;;;1999.90;999.90;;;11.30;99.90;;;;;;4996721;28;20229;-77
2021/11/08 12:44:50;;;;;;;1999.90;999.90;;;11.30;99.90;;;;;;4997214;28;20186;-78
2021/11/08 12:47:16;;;;;;;1999.90;999.90;;;11.20;99.90;;;;;;4980607;28;20288;-78
2021/11/08 12:49:51;;;;;;;1999.90;999.90;;;11.20;99.90;;;;;;4998924;28;20175;-78
2021/11/08 12:52:31;;;;;;;1999.90;999.90;;;11.10;99.90;;;;;;5005085;28;20241;-78
2021/11/08 12:55:11;;;;;;;1999.90;999.90;;;11.20;99.90;;;;;;4993685;28;20187;-78
2021/11/08 12:57:38;;;;;;;1999.90;999.90;;;11.20;99.90;;;;;;4994708;28;20214;-78
2021/11/08 13:00:23;;;;;;;1999.90;999.90;;;11.20;99.90;;;;;;4977499;28;20237;-78
2021/11/08 13:02:55;;;;;;;1999.90;999.90;;;11.20;99.90;;;;;;4976385;28;20343;-78
2021/11/08 13:05:24;;;;;;;1999.90;999.90;;;11.20;99.90;;;;;;4994124;28;20185;-78
2021/11/08 13:07:50;;;;;;;1999.90;999.90;;;11.10;99.90;;;;;;4993700;28;20270;-78
2021/11/08 13:10:21;;;;;;;1999.90;999.90;;;11.10;99.90;;;;;;4954243;28;20208;-78
2021/11/08 13:12:46;;;;;;;1999.90;999.90;;;11.10;99.90;;;;;;4992240;28;20186;-78
2021/11/08 13:15:19;;;;;;;1999.90;999.90;;;11.10;99.90;;;;;;4957068;28;20169;-78
2021/11/08 13:18:00;;;;;;;1999.90;999.90;;;11.10;99.90;;;;;;4963610;28;20203;-78
2021/11/08 13:20:30;;;;;;;1999.90;999.90;;;10.90;99.90;;;;;;4990454;28;20235;-78
2021/11/08 13:23:09;;;;;;;1999.90;999.90;;;10.90;99.90;;;;;;4997671;28;20207;-78
2021/11/08 13:25:40;;;;;;;1999.90;999.90;;;10.80;99.90;;;;;;4997490;28;20212;-78
2021/11/08 13:28:08;;;;;;;1999.90;999.90;;;10.80;99.90;;;;;;4954624;28;20200;-78
2021/11/08 13:30:59;;;;;;;1999.90;999.90;;;10.90;99.90;;;;;;4980546;28;20747;-78
2021/11/08 13:33:31;;;;;;;1999.90;999.90;;;11.00;99.90;;;;;;4997883;28;20179;-78
2021/11/08 13:35:56;;;;;;;1999.90;999.90;;;11.00;99.90;;;;;;4965571;28;20184;-78
2021/11/08 13:38:31;;;;;;;1999.90;999.90;;;11.00;99.90;;;;;;4996788;28;20214;-78
2021/11/08 13:41:07;;;;;;;1999.90;999.90;;;10.90;99.90;;;;;;4999981;28;20286;-79
2021/11/08 13:43:43;;;;;;;1999.90;999.90;;;11.20;99.90;;;;;;4983133;28;20246;-80
2021/11/08 13:46:22;;;;;;;1999.90;999.90;;;11.20;99.90;;;;;;4984134;28;20679;-81
2021/11/08 13:48:50;;;;;;;1999.90;999.90;;;11.20;99.90;;;;;;4981664;28;20183;-81
2021/11/08 13:51:27;;;;;;;1999.90;999.90;;;11.30;99.90;;;;;;4980221;28;20259;-82
2021/11/08 13:53:59;;;;;;;1999.90;999.90;;;11.30;99.90;;;;;;4997280;28;20172;-81
2021/11/08 13:56:31;;;;;;;1999.90;999.90;;;11.40;99.90;;;;;;4982401;28;20211;-83
2021/11/08 13:58:56;;;;;;;1999.90;999.90;;;11.40;99.90;;;;;;4965669;28;20593;-81
2021/11/08 14:01:27;;;;;;;1999.90;999.90;;;11.30;99.90;;;;;;4966416;28;20226;-81
2021/11/08 14:03:52;;;;;;;1999.90;999.90;;;11.50;99.90;;;;;;4983123;28;20183;-81